sensor_id;sensor_type;location;lat;lon;timestamp;P1;durP1;ratioP1;P2;durP2;ratioP2
1475;SDS011;730;48.870;12.542;2022-10-23T00:00:31;9.10;;;8.30;;
1475;SDS011;730;48.870;12.542;2022-10-23T00:02:57;10.33;;;8.60;;
1475;SDS011;730;48.870;12.542;2022-10-23T00:05:23;10.00;;;8.37;;
1475;SDS011;730;48.870;12.542;2022-10-23T00:07:50;8.53;;;7.83;;
1475;SDS011;730;48.870;12.542;2022-10-23T00:10:17;8.70;;;7.90;;
1475;SDS011;730;48.870;12.542;2022-10-23T00:12:44;10.63;;;9.73;;
1475;SDS011;730;48.870;12.542;2022-10-23T00:15:10;10.37;;;9.37;;
1475;SDS011;730;48.870;12.542;2022-10-23T00:17:36;9.30;;;8.40;;
1475;SDS011;730;48.870;12.542;2022-10-23T00:20:03;11.67;;;10.50;;
1475;SDS011;730;48.870;12.542;2022-10-23T00:22:29;11.60;;;9.83;;
1475;SDS011;730;48.870;12.542;2022-10-23T00:24:55;13.93;;;10.77;;
1475;SDS011;730;48.870;12.542;2022-10-23T00:27:20;10.13;;;9.17;;
1475;SDS011;730;48.870;12.542;2022-10-23T00:29:46;12.00;;;10.80;;
1475;SDS011;730;48.870;12.542;2022-10-23T00:32:11;12.33;;;10.10;;
1475;SDS011;730;48.870;12.542;2022-10-23T00:34:37;18.03;;;12.30;;
1475;SDS011;730;48.870;12.542;2022-10-23T00:37:02;10.60;;;9.70;;
1475;SDS011;730;48.870;12.542;2022-10-23T00:39:28;11.60;;;10.50;;
1475;SDS011;730;48.870;12.542;2022-10-23T00:41:54;24.57;;;11.27;;
1475;SDS011;730;48.870;12.542;2022-10-23T00:46:45;11.83;;;10.47;;
1475;SDS011;730;48.870;12.542;2022-10-23T00:49:12;32.23;;;12.00;;
1475;SDS011;730;48.870;12.542;2022-10-23T00:51:39;11.70;;;10.60;;
1475;SDS011;730;48.870;12.542;2022-10-23T00:54:08;11.27;;;10.27;;
1475;SDS011;730;48.870;12.542;2022-10-23T00:56:37;28.83;;;11.60;;
1475;SDS011;730;48.870;12.542;2022-10-23T00:59:06;19.40;;;10.33;;
1475;SDS011;730;48.870;12.542;2022-10-23T01:01:32;29.03;;;10.87;;
1475;SDS011;730;48.870;12.542;2022-10-23T01:03:58;16.23;;;10.50;;
1475;SDS011;730;48.870;12.542;2022-10-23T01:12:11;12.67;;;10.30;;
1475;SDS011;730;48.870;12.542;2022-10-23T01:17:35;14.83;;;11.30;;
1475;SDS011;730;48.870;12.542;2022-10-23T01:25:37;11.50;;;10.50;;
1475;SDS011;730;48.870;12.542;2022-10-23T01:28:33;10.50;;;9.53;;
1475;SDS011;730;48.870;12.542;2022-10-23T01:31:07;10.97;;;9.90;;
1475;SDS011;730;48.870;12.542;2022-10-23T01:33:40;10.10;;;9.13;;
1475;SDS011;730;48.870;12.542;2022-10-23T01:36:12;11.23;;;10.23;;
1475;SDS011;730;48.870;12.542;2022-10-23T01:38:53;11.03;;;10.03;;
1475;SDS011;730;48.870;12.542;2022-10-23T01:41:23;11.43;;;10.43;;
1475;SDS011;730;48.870;12.542;2022-10-23T01:46:37;11.10;;;10.10;;
1475;SDS011;730;48.870;12.542;2022-10-23T01:49:04;11.77;;;10.63;;
1475;SDS011;730;48.870;12.542;2022-10-23T01:51:35;11.63;;;10.53;;
1475;SDS011;730;48.870;12.542;2022-10-23T01:54:03;12.40;;;10.53;;
1475;SDS011;730;48.870;12.542;2022-10-23T01:56:31;16.47;;;12.83;;
1475;SDS011;730;48.870;12.542;2022-10-23T01:59:00;12.50;;;11.30;;
1475;SDS011;730;48.870;12.542;2022-10-23T02:01:29;16.30;;;13.00;;
1475;SDS011;730;48.870;12.542;2022-10-23T02:03:56;13.70;;;12.27;;
1475;SDS011;730;48.870;12.542;2022-10-23T02:06:24;13.07;;;11.90;;
1475;SDS011;730;48.870;12.542;2022-10-23T02:08:49;12.70;;;11.60;;
1475;SDS011;730;48.870;12.542;2022-10-23T02:11:19;12.47;;;11.20;;
1475;SDS011;730;48.870;12.542;2022-10-23T02:16:41;11.63;;;10.63;;
1475;SDS011;730;48.870;12.542;2022-10-23T02:19:27;12.40;;;10.60;;
1475;SDS011;730;48.870;12.542;2022-10-23T02:27:17;10.77;;;9.77;;
1475;SDS011;730;48.870;12.542;2022-10-23T02:29:49;9.90;;;8.90;;
1475;SDS011;730;48.870;12.542;2022-10-23T02:32:19;10.83;;;9.73;;
1475;SDS011;730;48.870;12.542;2022-10-23T02:34:48;12.27;;;11.07;;
1475;SDS011;730;48.870;12.542;2022-10-23T02:37:14;14.23;;;11.93;;
1475;SDS011;730;48.870;12.542;2022-10-23T02:39:40;13.17;;;11.87;;
1475;SDS011;730;48.870;12.542;2022-10-23T02:42:08;12.90;;;11.10;;
1475;SDS011;730;48.870;12.542;2022-10-23T02:50:28;12.30;;;11.00;;
1475;SDS011;730;48.870;12.542;2022-10-23T03:00:49;17.23;;;13.73;;
1475;SDS011;730;48.870;12.542;2022-10-23T03:03:20;14.93;;;12.67;;
1475;SDS011;730;48.870;12.542;2022-10-23T03:05:51;14.80;;;13.27;;
1475;SDS011;730;48.870;12.542;2022-10-23T03:08:17;14.10;;;12.67;;
1475;SDS011;730;48.870;12.542;2022-10-23T03:10:42;12.77;;;11.43;;
1475;SDS011;730;48.870;12.542;2022-10-23T03:13:08;14.77;;;12.87;;
1475;SDS011;730;48.870;12.542;2022-10-23T03:15:35;12.87;;;11.33;;
1475;SDS011;730;48.870;12.542;2022-10-23T03:18:00;13.50;;;12.10;;
1475;SDS011;730;48.870;12.542;2022-10-23T03:20:26;13.53;;;11.43;;
1475;SDS011;730;48.870;12.542;2022-10-23T03:22:51;12.90;;;11.70;;
1475;SDS011;730;48.870;12.542;2022-10-23T03:25:17;13.43;;;12.10;;
1475;SDS011;730;48.870;12.542;2022-10-23T03:27:42;13.43;;;11.00;;
1475;SDS011;730;48.870;12.542;2022-10-23T03:30:08;11.33;;;10.17;;
1475;SDS011;730;48.870;12.542;2022-10-23T03:32:34;10.77;;;9.67;;
1475;SDS011;730;48.870;12.542;2022-10-23T03:35:00;11.03;;;10.03;;
1475;SDS011;730;48.870;12.542;2022-10-23T03:37:25;10.00;;;9.00;;
1475;SDS011;730;48.870;12.542;2022-10-23T03:39:51;9.77;;;8.87;;
1475;SDS011;730;48.870;12.542;2022-10-23T03:42:17;9.83;;;8.93;;
1475;SDS011;730;48.870;12.542;2022-10-23T03:44:42;10.33;;;9.33;;
1475;SDS011;730;48.870;12.542;2022-10-23T03:47:08;11.37;;;9.40;;
1475;SDS011;730;48.870;12.542;2022-10-23T03:49:36;11.10;;;9.90;;
1475;SDS011;730;48.870;12.542;2022-10-23T03:52:02;12.70;;;10.90;;
1475;SDS011;730;48.870;12.542;2022-10-23T03:54:29;11.10;;;9.97;;
1475;SDS011;730;48.870;12.542;2022-10-23T03:56:54;11.20;;;10.20;;
1475;SDS011;730;48.870;12.542;2022-10-23T03:59:20;11.60;;;10.00;;
1475;SDS011;730;48.870;12.542;2022-10-23T04:01:46;11.70;;;10.50;;
1475;SDS011;730;48.870;12.542;2022-10-23T04:04:12;9.57;;;8.77;;
1475;SDS011;730;48.870;12.542;2022-10-23T04:06:38;16.03;;;10.07;;
1475;SDS011;730;48.870;12.542;2022-10-23T04:09:04;11.50;;;9.80;;
1475;SDS011;730;48.870;12.542;2022-10-23T04:11:31;9.97;;;9.17;;
1475;SDS011;730;48.870;12.542;2022-10-23T04:13:57;10.23;;;9.23;;
1475;SDS011;730;48.870;12.542;2022-10-23T04:16:23;11.37;;;8.57;;
1475;SDS011;730;48.870;12.542;2022-10-23T04:18:49;8.73;;;7.83;;
1475;SDS011;730;48.870;12.542;2022-10-23T04:21:15;10.17;;;8.13;;
1475;SDS011;730;48.870;12.542;2022-10-23T04:23:41;9.13;;;8.33;;
1475;SDS011;730;48.870;12.542;2022-10-23T04:26:06;9.40;;;8.60;;
1475;SDS011;730;48.870;12.542;2022-10-23T04:28:32;27.80;;;9.33;;
1475;SDS011;730;48.870;12.542;2022-10-23T04:30:57;31.33;;;10.00;;
1475;SDS011;730;48.870;12.542;2022-10-23T04:33:23;9.87;;;8.90;;
1475;SDS011;730;48.870;12.542;2022-10-23T04:35:49;9.10;;;7.27;;
1475;SDS011;730;48.870;12.542;2022-10-23T04:38:14;9.73;;;8.83;;
1475;SDS011;730;48.870;12.542;2022-10-23T04:40:40;34.83;;;10.70;;
1475;SDS011;730;48.870;12.542;2022-10-23T04:43:05;39.63;;;9.40;;
1475;SDS011;730;48.870;12.542;2022-10-23T04:45:31;15.20;;;8.30;;
1475;SDS011;730;48.870;12.542;2022-10-23T04:47:57;19.30;;;9.00;;
1475;SDS011;730;48.870;12.542;2022-10-23T04:50:22;36.70;;;10.30;;
1475;SDS011;730;48.870;12.542;2022-10-23T04:52:52;33.40;;;10.20;;
1475;SDS011;730;48.870;12.542;2022-10-23T04:55:18;17.53;;;9.13;;
1475;SDS011;730;48.870;12.542;2022-10-23T04:57:44;8.87;;;8.07;;
1475;SDS011;730;48.870;12.542;2022-10-23T05:00:11;11.20;;;8.63;;
1475;SDS011;730;48.870;12.542;2022-10-23T05:02:38;9.27;;;8.07;;
1475;SDS011;730;48.870;12.542;2022-10-23T05:05:03;15.40;;;8.67;;
1475;SDS011;730;48.870;12.542;2022-10-23T05:07:30;16.77;;;8.20;;
1475;SDS011;730;48.870;12.542;2022-10-23T05:09:56;9.73;;;8.77;;
1475;SDS011;730;48.870;12.542;2022-10-23T05:12:22;8.97;;;8.17;;
1475;SDS011;730;48.870;12.542;2022-10-23T05:14:49;9.80;;;8.80;;
1475;SDS011;730;48.870;12.542;2022-10-23T05:17:16;11.97;;;8.23;;
1475;SDS011;730;48.870;12.542;2022-10-23T05:19:52;13.40;;;9.40;;
1475;SDS011;730;48.870;12.542;2022-10-23T05:22:20;10.37;;;8.90;;
1475;SDS011;730;48.870;12.542;2022-10-23T05:24:47;12.93;;;9.77;;
1475;SDS011;730;48.870;12.542;2022-10-23T05:27:13;10.73;;;8.73;;
1475;SDS011;730;48.870;12.542;2022-10-23T05:29:39;9.70;;;8.60;;
1475;SDS011;730;48.870;12.542;2022-10-23T05:32:04;8.77;;;7.87;;
1475;SDS011;730;48.870;12.542;2022-10-23T05:34:33;10.50;;;9.07;;
1475;SDS011;730;48.870;12.542;2022-10-23T05:37:01;10.10;;;8.80;;
1475;SDS011;730;48.870;12.542;2022-10-23T05:39:27;21.07;;;10.10;;
1475;SDS011;730;48.870;12.542;2022-10-23T05:41:53;20.13;;;11.17;;
1475;SDS011;730;48.870;12.542;2022-10-23T05:44:19;15.67;;;9.83;;
1475;SDS011;730;48.870;12.542;2022-10-23T05:46:45;17.70;;;10.30;;
1475;SDS011;730;48.870;12.542;2022-10-23T05:49:11;10.90;;;9.67;;
1475;SDS011;730;48.870;12.542;2022-10-23T05:51:37;18.10;;;10.10;;
1475;SDS011;730;48.870;12.542;2022-10-23T05:54:04;19.33;;;11.17;;
1475;SDS011;730;48.870;12.542;2022-10-23T05:56:34;9.17;;;8.27;;
1475;SDS011;730;48.870;12.542;2022-10-23T05:59:01;13.40;;;9.70;;
1475;SDS011;730;48.870;12.542;2022-10-23T06:01:27;15.40;;;10.00;;
1475;SDS011;730;48.870;12.542;2022-10-23T06:03:52;20.03;;;11.60;;
1475;SDS011;730;48.870;12.542;2022-10-23T06:06:18;10.77;;;9.67;;
1475;SDS011;730;48.870;12.542;2022-10-23T06:08:44;10.77;;;9.80;;
1475;SDS011;730;48.870;12.542;2022-10-23T06:11:10;37.67;;;11.10;;
1475;SDS011;730;48.870;12.542;2022-10-23T06:13:38;10.87;;;9.77;;
1475;SDS011;730;48.870;12.542;2022-10-23T06:16:16;11.33;;;10.13;;
1475;SDS011;730;48.870;12.542;2022-10-23T06:18:46;9.97;;;8.97;;
1475;SDS011;730;48.870;12.542;2022-10-23T06:21:12;10.57;;;8.93;;
1475;SDS011;730;48.870;12.542;2022-10-23T06:23:39;15.80;;;8.63;;
1475;SDS011;730;48.870;12.542;2022-10-23T06:26:06;10.20;;;8.50;;
1475;SDS011;730;48.870;12.542;2022-10-23T06:28:34;11.20;;;8.93;;
1475;SDS011;730;48.870;12.542;2022-10-23T06:31:04;36.93;;;10.07;;
1475;SDS011;730;48.870;12.542;2022-10-23T06:33:31;26.40;;;10.00;;
1475;SDS011;730;48.870;12.542;2022-10-23T06:35:56;24.80;;;9.90;;
1475;SDS011;730;48.870;12.542;2022-10-23T06:38:22;16.07;;;8.80;;
1475;SDS011;730;48.870;12.542;2022-10-23T06:40:56;20.03;;;11.00;;
1475;SDS011;730;48.870;12.542;2022-10-23T06:43:21;38.37;;;11.40;;
1475;SDS011;730;48.870;12.542;2022-10-23T06:45:47;35.70;;;13.50;;
1475;SDS011;730;48.870;12.542;2022-10-23T06:48:13;27.00;;;12.60;;
1475;SDS011;730;48.870;12.542;2022-10-23T06:50:39;23.87;;;11.97;;
1475;SDS011;730;48.870;12.542;2022-10-23T06:53:05;39.83;;;12.87;;
1475;SDS011;730;48.870;12.542;2022-10-23T06:55:31;54.27;;;13.60;;
1475;SDS011;730;48.870;12.542;2022-10-23T06:57:57;62.23;;;15.63;;
1475;SDS011;730;48.870;12.542;2022-10-23T07:00:23;19.20;;;11.50;;
1475;SDS011;730;48.870;12.542;2022-10-23T07:02:49;22.10;;;13.60;;
1475;SDS011;730;48.870;12.542;2022-10-23T07:05:16;41.40;;;16.50;;
1475;SDS011;730;48.870;12.542;2022-10-23T07:07:42;31.30;;;15.30;;
1475;SDS011;730;48.870;12.542;2022-10-23T07:10:08;25.10;;;14.50;;
1475;SDS011;730;48.870;12.542;2022-10-23T07:12:34;16.77;;;12.87;;
1475;SDS011;730;48.870;12.542;2022-10-23T07:15:00;20.17;;;13.00;;
1475;SDS011;730;48.870;12.542;2022-10-23T07:17:26;25.00;;;13.70;;
1475;SDS011;730;48.870;12.542;2022-10-23T07:19:53;17.87;;;13.10;;
1475;SDS011;730;48.870;12.542;2022-10-23T07:22:18;20.47;;;13.30;;
1475;SDS011;730;48.870;12.542;2022-10-23T07:24:44;18.13;;;12.50;;
1475;SDS011;730;48.870;12.542;2022-10-23T07:27:10;19.30;;;13.00;;
1475;SDS011;730;48.870;12.542;2022-10-23T07:29:35;17.30;;;11.63;;
1475;SDS011;730;48.870;12.542;2022-10-23T07:32:01;23.00;;;11.87;;
1475;SDS011;730;48.870;12.542;2022-10-23T07:34:27;16.17;;;11.30;;
1475;SDS011;730;48.870;12.542;2022-10-23T07:36:52;23.20;;;12.47;;
1475;SDS011;730;48.870;12.542;2022-10-23T07:39:19;21.57;;;12.30;;
1475;SDS011;730;48.870;12.542;2022-10-23T07:41:46;15.20;;;11.13;;
1475;SDS011;730;48.870;12.542;2022-10-23T07:44:12;17.87;;;11.10;;
1475;SDS011;730;48.870;12.542;2022-10-23T07:46:38;17.83;;;11.80;;
1475;SDS011;730;48.870;12.542;2022-10-23T07:49:03;18.17;;;11.03;;
1475;SDS011;730;48.870;12.542;2022-10-23T07:51:29;16.73;;;11.47;;
1475;SDS011;730;48.870;12.542;2022-10-23T07:53:55;18.97;;;11.20;;
1475;SDS011;730;48.870;12.542;2022-10-23T07:56:24;21.37;;;11.63;;
1475;SDS011;730;48.870;12.542;2022-10-23T07:58:53;18.77;;;11.20;;
1475;SDS011;730;48.870;12.542;2022-10-23T08:01:30;15.97;;;10.50;;
1475;SDS011;730;48.870;12.542;2022-10-23T08:04:01;22.33;;;11.60;;
1475;SDS011;730;48.870;12.542;2022-10-23T08:06:27;13.90;;;10.43;;
1475;SDS011;730;48.870;12.542;2022-10-23T08:08:53;17.77;;;11.60;;
1475;SDS011;730;48.870;12.542;2022-10-23T08:11:19;19.43;;;11.23;;
1475;SDS011;730;48.870;12.542;2022-10-23T08:13:51;16.43;;;11.60;;
1475;SDS011;730;48.870;12.542;2022-10-23T08:16:18;19.23;;;12.10;;
1475;SDS011;730;48.870;12.542;2022-10-23T08:18:44;29.87;;;16.67;;
1475;SDS011;730;48.870;12.542;2022-10-23T08:21:10;21.20;;;12.57;;
1475;SDS011;730;48.870;12.542;2022-10-23T08:23:36;21.60;;;12.10;;
1475;SDS011;730;48.870;12.542;2022-10-23T08:26:02;22.10;;;12.60;;
1475;SDS011;730;48.870;12.542;2022-10-23T08:28:30;22.70;;;12.63;;
1475;SDS011;730;48.870;12.542;2022-10-23T08:30:56;18.17;;;12.40;;
1475;SDS011;730;48.870;12.542;2022-10-23T08:33:22;19.27;;;12.60;;
1475;SDS011;730;48.870;12.542;2022-10-23T08:35:47;21.30;;;12.80;;
1475;SDS011;730;48.870;12.542;2022-10-23T08:38:13;22.27;;;13.03;;
1475;SDS011;730;48.870;12.542;2022-10-23T08:40:42;20.37;;;13.57;;
1475;SDS011;730;48.870;12.542;2022-10-23T08:45:35;17.00;;;11.10;;
1475;SDS011;730;48.870;12.542;2022-10-23T08:48:29;13.87;;;10.30;;
1475;SDS011;730;48.870;12.542;2022-10-23T08:51:33;18.60;;;11.70;;
1475;SDS011;730;48.870;12.542;2022-10-23T08:54:33;17.93;;;11.67;;
1475;SDS011;730;48.870;12.542;2022-10-23T08:57:10;19.73;;;12.70;;
1475;SDS011;730;48.870;12.542;2022-10-23T09:02:37;18.17;;;11.77;;
1475;SDS011;730;48.870;12.542;2022-10-23T09:05:17;14.33;;;9.93;;
1475;SDS011;730;48.870;12.542;2022-10-23T09:07:53;16.30;;;11.30;;
1475;SDS011;730;48.870;12.542;2022-10-23T09:18:51;17.93;;;11.63;;
1475;SDS011;730;48.870;12.542;2022-10-23T09:21:17;14.20;;;10.60;;
1475;SDS011;730;48.870;12.542;2022-10-23T09:23:44;16.20;;;11.87;;
1475;SDS011;730;48.870;12.542;2022-10-23T09:26:14;12.80;;;10.17;;
1475;SDS011;730;48.870;12.542;2022-10-23T09:28:44;13.40;;;10.30;;
1475;SDS011;730;48.870;12.542;2022-10-23T09:31:10;16.23;;;11.20;;
1475;SDS011;730;48.870;12.542;2022-10-23T09:33:37;12.87;;;9.93;;
1475;SDS011;730;48.870;12.542;2022-10-23T09:36:04;17.80;;;11.20;;
1475;SDS011;730;48.870;12.542;2022-10-23T09:38:36;12.33;;;9.37;;
1475;SDS011;730;48.870;12.542;2022-10-23T09:41:09;13.03;;;9.00;;
1475;SDS011;730;48.870;12.542;2022-10-23T09:43:43;12.07;;;9.20;;
1475;SDS011;730;48.870;12.542;2022-10-23T09:46:09;11.33;;;9.00;;
1475;SDS011;730;48.870;12.542;2022-10-23T09:48:36;14.60;;;9.00;;
1475;SDS011;730;48.870;12.542;2022-10-23T09:51:03;11.07;;;8.70;;
1475;SDS011;730;48.870;12.542;2022-10-23T09:53:57;11.93;;;9.10;;
1475;SDS011;730;48.870;12.542;2022-10-23T09:56:34;10.77;;;8.67;;
1475;SDS011;730;48.870;12.542;2022-10-23T09:59:15;13.30;;;10.07;;
1475;SDS011;730;48.870;12.542;2022-10-23T10:01:53;12.13;;;8.67;;
1475;SDS011;730;48.870;12.542;2022-10-23T10:04:31;12.77;;;9.80;;
1475;SDS011;730;48.870;12.542;2022-10-23T10:06:57;12.43;;;8.93;;
1475;SDS011;730;48.870;12.542;2022-10-23T10:09:23;11.13;;;9.00;;
1475;SDS011;730;48.870;12.542;2022-10-23T10:17:07;10.17;;;9.13;;
1475;SDS011;730;48.870;12.542;2022-10-23T10:25:02;11.73;;;8.63;;
1475;SDS011;730;48.870;12.542;2022-10-23T10:28:08;10.73;;;9.00;;
1475;SDS011;730;48.870;12.542;2022-10-23T10:36:48;11.10;;;9.60;;
1475;SDS011;730;48.870;12.542;2022-10-23T10:39:23;10.37;;;8.57;;
1475;SDS011;730;48.870;12.542;2022-10-23T10:42:35;11.67;;;8.40;;
1475;SDS011;730;48.870;12.542;2022-10-23T10:45:32;9.03;;;7.70;;
1475;SDS011;730;48.870;12.542;2022-10-23T10:55:55;8.37;;;7.33;;
1475;SDS011;730;48.870;12.542;2022-10-23T10:58:41;8.90;;;7.20;;
1475;SDS011;730;48.870;12.542;2022-10-23T11:03:55;8.40;;;7.50;;
1475;SDS011;730;48.870;12.542;2022-10-23T11:06:26;9.40;;;7.90;;
1475;SDS011;730;48.870;12.542;2022-10-23T11:08:55;8.00;;;7.03;;
1475;SDS011;730;48.870;12.542;2022-10-23T11:11:32;8.17;;;7.40;;
1475;SDS011;730;48.870;12.542;2022-10-23T11:14:01;12.50;;;7.63;;
1475;SDS011;730;48.870;12.542;2022-10-23T11:16:29;8.37;;;7.20;;
1475;SDS011;730;48.870;12.542;2022-10-23T11:21:37;7.10;;;6.23;;
1475;SDS011;730;48.870;12.542;2022-10-23T11:27:31;7.57;;;6.77;;
1475;SDS011;730;48.870;12.542;2022-10-23T11:36:10;6.20;;;5.60;;
1475;SDS011;730;48.870;12.542;2022-10-23T11:38:55;5.63;;;5.00;;
1475;SDS011;730;48.870;12.542;2022-10-23T11:41:51;7.43;;;5.87;;
1475;SDS011;730;48.870;12.542;2022-10-23T11:44:27;8.00;;;7.30;;
1475;SDS011;730;48.870;12.542;2022-10-23T11:47:03;6.97;;;6.30;;
1475;SDS011;730;48.870;12.542;2022-10-23T11:49:49;6.60;;;6.00;;
1475;SDS011;730;48.870;12.542;2022-10-23T11:52:21;6.97;;;6.00;;
1475;SDS011;730;48.870;12.542;2022-10-23T11:54:59;6.53;;;5.80;;
1475;SDS011;730;48.870;12.542;2022-10-23T12:00:32;7.03;;;5.43;;
1475;SDS011;730;48.870;12.542;2022-10-23T12:03:02;5.97;;;5.37;;
1475;SDS011;730;48.870;12.542;2022-10-23T12:05:30;6.57;;;5.70;;
1475;SDS011;730;48.870;12.542;2022-10-23T12:08:06;5.67;;;5.13;;
1475;SDS011;730;48.870;12.542;2022-10-23T12:10:47;7.23;;;5.47;;
1475;SDS011;730;48.870;12.542;2022-10-23T12:16:14;5.40;;;4.90;;
1475;SDS011;730;48.870;12.542;2022-10-23T12:18:44;6.10;;;5.50;;
1475;SDS011;730;48.870;12.542;2022-10-23T12:21:13;6.50;;;5.90;;
1475;SDS011;730;48.870;12.542;2022-10-23T12:23:48;7.60;;;5.00;;
1475;SDS011;730;48.870;12.542;2022-10-23T12:40:15;6.33;;;4.37;;
1475;SDS011;730;48.870;12.542;2022-10-23T12:42:47;6.10;;;5.30;;
1475;SDS011;730;48.870;12.542;2022-10-23T12:45:16;4.93;;;4.43;;
1475;SDS011;730;48.870;12.542;2022-10-23T12:47:44;5.00;;;4.50;;
1475;SDS011;730;48.870;12.542;2022-10-23T12:50:18;5.53;;;5.03;;
1475;SDS011;730;48.870;12.542;2022-10-23T12:52:51;5.80;;;4.60;;
1475;SDS011;730;48.870;12.542;2022-10-23T12:55:22;5.73;;;5.23;;
1475;SDS011;730;48.870;12.542;2022-10-23T12:57:50;6.60;;;5.53;;
1475;SDS011;730;48.870;12.542;2022-10-23T13:00:17;6.17;;;5.57;;
1475;SDS011;730;48.870;12.542;2022-10-23T13:02:45;7.17;;;5.10;;
1475;SDS011;730;48.870;12.542;2022-10-23T13:05:21;5.30;;;4.67;;
1475;SDS011;730;48.870;12.542;2022-10-23T13:07:47;5.50;;;5.00;;
1475;SDS011;730;48.870;12.542;2022-10-23T13:10:15;4.80;;;4.40;;
1475;SDS011;730;48.870;12.542;2022-10-23T13:12:45;5.53;;;5.10;;
1475;SDS011;730;48.870;12.542;2022-10-23T13:15:19;5.60;;;5.10;;
1475;SDS011;730;48.870;12.542;2022-10-23T13:18:06;5.77;;;5.27;;
1475;SDS011;730;48.870;12.542;2022-10-23T13:20:36;5.20;;;4.70;;
1475;SDS011;730;48.870;12.542;2022-10-23T13:25:35;4.93;;;4.43;;
1475;SDS011;730;48.870;12.542;2022-10-23T13:28:12;4.13;;;3.77;;
1475;SDS011;730;48.870;12.542;2022-10-23T13:30:44;4.77;;;4.20;;
1475;SDS011;730;48.870;12.542;2022-10-23T13:33:29;5.27;;;3.87;;
1475;SDS011;730;48.870;12.542;2022-10-23T13:36:00;5.47;;;4.97;;
1475;SDS011;730;48.870;12.542;2022-10-23T13:38:44;4.27;;;3.67;;
1475;SDS011;730;48.870;12.542;2022-10-23T13:41:20;4.03;;;3.50;;
1475;SDS011;730;48.870;12.542;2022-10-23T13:43:46;7.43;;;3.90;;
1475;SDS011;730;48.870;12.542;2022-10-23T13:46:30;5.40;;;3.27;;
1475;SDS011;730;48.870;12.542;2022-10-23T13:48:56;3.47;;;3.17;;
1475;SDS011;730;48.870;12.542;2022-10-23T13:53:48;4.00;;;3.60;;
1475;SDS011;730;48.870;12.542;2022-10-23T13:56:16;3.50;;;3.20;;
1475;SDS011;730;48.870;12.542;2022-10-23T13:58:44;3.77;;;3.47;;
1475;SDS011;730;48.870;12.542;2022-10-23T14:03:50;5.20;;;3.73;;
1475;SDS011;730;48.870;12.542;2022-10-23T14:06:16;4.10;;;3.80;;
1475;SDS011;730;48.870;12.542;2022-10-23T14:08:41;5.83;;;4.53;;
1475;SDS011;730;48.870;12.542;2022-10-23T14:11:08;4.50;;;4.10;;
1475;SDS011;730;48.870;12.542;2022-10-23T14:13:34;4.97;;;3.40;;
1475;SDS011;730;48.870;12.542;2022-10-23T14:16:00;4.70;;;4.30;;
1475;SDS011;730;48.870;12.542;2022-10-23T14:18:25;4.53;;;4.13;;
1475;SDS011;730;48.870;12.542;2022-10-23T14:20:51;6.07;;;5.03;;
1475;SDS011;730;48.870;12.542;2022-10-23T14:23:17;3.83;;;3.33;;
1475;SDS011;730;48.870;12.542;2022-10-23T14:25:42;5.07;;;4.23;;
1475;SDS011;730;48.870;12.542;2022-10-23T14:28:08;3.97;;;3.57;;
1475;SDS011;730;48.870;12.542;2022-10-23T14:30:34;4.37;;;3.97;;
1475;SDS011;730;48.870;12.542;2022-10-23T14:33:01;4.50;;;4.07;;
1475;SDS011;730;48.870;12.542;2022-10-23T14:35:27;4.63;;;4.23;;
1475;SDS011;730;48.870;12.542;2022-10-23T14:37:53;4.50;;;4.10;;
1475;SDS011;730;48.870;12.542;2022-10-23T14:40:18;5.00;;;4.43;;
1475;SDS011;730;48.870;12.542;2022-10-23T14:42:44;5.43;;;4.80;;
1475;SDS011;730;48.870;12.542;2022-10-23T14:45:09;5.50;;;4.33;;
1475;SDS011;730;48.870;12.542;2022-10-23T14:47:35;5.23;;;3.87;;
1475;SDS011;730;48.870;12.542;2022-10-23T14:50:01;5.03;;;4.53;;
1475;SDS011;730;48.870;12.542;2022-10-23T14:52:26;5.00;;;4.27;;
1475;SDS011;730;48.870;12.542;2022-10-23T14:54:52;4.90;;;4.40;;
1475;SDS011;730;48.870;12.542;2022-10-23T14:57:18;6.53;;;4.70;;
1475;SDS011;730;48.870;12.542;2022-10-23T14:59:46;6.63;;;4.13;;
1475;SDS011;730;48.870;12.542;2022-10-23T15:02:12;7.23;;;4.20;;
1475;SDS011;730;48.870;12.542;2022-10-23T15:04:38;5.57;;;3.73;;
1475;SDS011;730;48.870;12.542;2022-10-23T15:07:04;5.20;;;4.70;;
1475;SDS011;730;48.870;12.542;2022-10-23T15:09:30;4.67;;;4.07;;
1475;SDS011;730;48.870;12.542;2022-10-23T15:12:00;4.90;;;4.40;;
1475;SDS011;730;48.870;12.542;2022-10-23T15:14:29;4.93;;;4.43;;
1475;SDS011;730;48.870;12.542;2022-10-23T15:16:55;4.77;;;4.13;;
1475;SDS011;730;48.870;12.542;2022-10-23T15:19:21;5.10;;;4.13;;
1475;SDS011;730;48.870;12.542;2022-10-23T15:21:47;4.20;;;3.80;;
1475;SDS011;730;48.870;12.542;2022-10-23T15:24:13;4.97;;;4.23;;
1475;SDS011;730;48.870;12.542;2022-10-23T15:26:39;5.30;;;3.90;;
1475;SDS011;730;48.870;12.542;2022-10-23T15:29:07;4.60;;;4.00;;
1475;SDS011;730;48.870;12.542;2022-10-23T15:34:05;5.53;;;4.87;;
1475;SDS011;730;48.870;12.542;2022-10-23T15:36:36;5.80;;;4.57;;
1475;SDS011;730;48.870;12.542;2022-10-23T15:39:03;6.30;;;4.10;;
1475;SDS011;730;48.870;12.542;2022-10-23T15:41:33;4.90;;;4.40;;
1475;SDS011;730;48.870;12.542;2022-10-23T15:44:00;4.73;;;4.20;;
1475;SDS011;730;48.870;12.542;2022-10-23T15:46:27;4.37;;;3.97;;
1475;SDS011;730;48.870;12.542;2022-10-23T15:48:53;5.33;;;4.83;;
1475;SDS011;730;48.870;12.542;2022-10-23T15:51:19;4.00;;;3.70;;
1475;SDS011;730;48.870;12.542;2022-10-23T15:53:45;4.77;;;3.57;;
1475;SDS011;730;48.870;12.542;2022-10-23T15:56:10;4.40;;;4.00;;
1475;SDS011;730;48.870;12.542;2022-10-23T15:58:36;4.37;;;4.00;;
1475;SDS011;730;48.870;12.542;2022-10-23T16:01:03;5.17;;;3.60;;
1475;SDS011;730;48.870;12.542;2022-10-23T16:03:30;4.03;;;3.67;;
1475;SDS011;730;48.870;12.542;2022-10-23T16:05:57;4.30;;;3.90;;
1475;SDS011;730;48.870;12.542;2022-10-23T16:08:22;4.00;;;3.60;;
1475;SDS011;730;48.870;12.542;2022-10-23T16:10:50;4.40;;;3.50;;
1475;SDS011;730;48.870;12.542;2022-10-23T16:13:16;4.50;;;3.70;;
1475;SDS011;730;48.870;12.542;2022-10-23T16:15:41;5.30;;;3.10;;
1475;SDS011;730;48.870;12.542;2022-10-23T16:18:07;4.30;;;3.40;;
1475;SDS011;730;48.870;12.542;2022-10-23T16:20:32;3.10;;;2.80;;
1475;SDS011;730;48.870;12.542;2022-10-23T16:22:58;4.50;;;3.33;;
1475;SDS011;730;48.870;12.542;2022-10-23T16:25:24;5.90;;;3.37;;
1475;SDS011;730;48.870;12.542;2022-10-23T16:27:49;3.80;;;3.43;;
1475;SDS011;730;48.870;12.542;2022-10-23T16:30:15;3.70;;;3.30;;
1475;SDS011;730;48.870;12.542;2022-10-23T16:32:41;3.90;;;3.37;;
1475;SDS011;730;48.870;12.542;2022-10-23T16:35:07;4.27;;;3.53;;
1475;SDS011;730;48.870;12.542;2022-10-23T16:37:33;5.03;;;4.30;;
1475;SDS011;730;48.870;12.542;2022-10-23T16:39:59;6.40;;;4.30;;
1475;SDS011;730;48.870;12.542;2022-10-23T16:42:25;3.97;;;3.57;;
1475;SDS011;730;48.870;12.542;2022-10-23T16:44:52;3.20;;;2.90;;
1475;SDS011;730;48.870;12.542;2022-10-23T16:47:17;6.40;;;4.00;;
1475;SDS011;730;48.870;12.542;2022-10-23T16:49:43;4.33;;;3.93;;
1475;SDS011;730;48.870;12.542;2022-10-23T16:52:09;3.90;;;3.50;;
1475;SDS011;730;48.870;12.542;2022-10-23T16:54:34;3.97;;;3.50;;
1475;SDS011;730;48.870;12.542;2022-10-23T16:57:00;4.47;;;3.23;;
1475;SDS011;730;48.870;12.542;2022-10-23T16:59:25;3.00;;;2.70;;
1475;SDS011;730;48.870;12.542;2022-10-23T17:01:51;4.60;;;3.17;;
1475;SDS011;730;48.870;12.542;2022-10-23T17:04:17;4.57;;;4.00;;
1475;SDS011;730;48.870;12.542;2022-10-23T17:06:43;4.23;;;3.83;;
1475;SDS011;730;48.870;12.542;2022-10-23T17:09:08;4.60;;;3.40;;
1475;SDS011;730;48.870;12.542;2022-10-23T17:11:35;3.77;;;3.37;;
1475;SDS011;730;48.870;12.542;2022-10-23T17:14:03;3.80;;;3.23;;
1475;SDS011;730;48.870;12.542;2022-10-23T17:16:33;4.03;;;3.60;;